Back to Top

Language: 

My Weather Underground Personal Weather Station Historical Data with Graphs...

Delerius Weather Station Historical Data
Daily Summary for March 29, 2017 Units:  Metric    English   Both
« Previous Day
Next Day »
Daily Weekly Monthly Yearly Custom
  High: Low: Average:
Temperature: 14.4 °C 9.6 °C 12.2 °C
Dew Point: 12.2 °C 8 °C 10.4 °C
Humidity: 97 % 81 % 89 %
Wind Speed: 22.5 km/h 0 km/h 11.1 km/h
Wind Gust: 43.5 km/h - -
Wind:- - SSW
Pressure: 1018.2 hPa 1015.5 hPa -
Precipitation: 0.51 mm    
Historical Graphs
 
 
Tabular Data for March 29, 2017
Time Temperature Dew Point Pressure Wind Wind Speed Wind Gust Humidity Rainfall Rate (Hourly) solar Conditions
00:03 10.7 °C 8.4 °C 1016.8 hPa SSW 4.8 km/h 11.3 km/h 86 % 0 mm 0 W/m2
00:08 10.6 °C 8.3 °C 1016.5 hPa SSW 3.2 km/h 11.3 km/h 86 % 0 mm 0 W/m2
00:13 10.6 °C 8.3 °C 1016.5 hPa SSE 1.6 km/h 9.7 km/h 86 % 0 mm 0 W/m2
00:18 10.6 °C 8.5 °C 1016.5 hPa SSE 3.2 km/h 11.3 km/h 87 % 0 mm 0 W/m2
00:23 10.5 °C 8.4 °C 1016.5 hPa SSE 3.2 km/h 11.3 km/h 87 % 0 mm 0 W/m2
00:28 10.5 °C 8.6 °C 1016.5 hPa South 4.8 km/h 11.3 km/h 88 % 0 mm 0 W/m2
00:33 10.5 °C 8.6 °C 1016.5 hPa SSW 6.4 km/h 11.3 km/h 88 % 0 mm 0 W/m2
00:38 10.5 °C 8.6 °C 1016.5 hPa SSW 8 km/h 12.9 km/h 88 % 0 mm 0 W/m2
00:43 10.5 °C 8.4 °C 1016.5 hPa SSW 6.4 km/h 12.9 km/h 87 % 0 mm 0 W/m2
00:48 10.5 °C 8.4 °C 1016.5 hPa South 4.8 km/h 12.9 km/h 87 % 0 mm 0 W/m2
00:53 10.5 °C 8.4 °C 1016.5 hPa SSW 3.2 km/h 11.3 km/h 87 % 0 mm 0 W/m2
00:58 10.5 °C 8.3 °C 1016.5 hPa South 4.8 km/h 14.5 km/h 86 % 0 mm 0 W/m2
01:03 10.5 °C 8.3 °C 1016.5 hPa SSW 6.4 km/h 14.5 km/h 86 % 0 mm 0 W/m2
01:08 10.5 °C 8.3 °C 1016.5 hPa SSW 3.2 km/h 12.9 km/h 86 % 0 mm 0 W/m2
01:13 10.5 °C 8.1 °C 1016.5 hPa SW 6.4 km/h 17.7 km/h 85 % 0 mm 0 W/m2
01:18 10.5 °C 8.1 °C 1016.5 hPa SW 9.7 km/h 17.7 km/h 85 % 0 mm 0 W/m2
01:23 10.4 °C 8 °C 1016.5 hPa SW 9.7 km/h 19.3 km/h 85 % 0 mm 0 W/m2
01:28 10.5 °C 8.1 °C 1016.5 hPa SW 9.7 km/h 19.3 km/h 85 % 0 mm 0 W/m2
01:33 10.5 °C 8.1 °C 1016.1 hPa SW 9.7 km/h 16.1 km/h 85 % 0 mm 0 W/m2
01:39 10.5 °C 8.1 °C 1016.1 hPa SW 9.7 km/h 17.7 km/h 85 % 0 mm 0 W/m2
01:44 10.4 °C 8.2 °C 1016.5 hPa SW 8 km/h 17.7 km/h 86 % 0 mm 0 W/m2
01:49 10.4 °C 8.2 °C 1016.5 hPa SW 8 km/h 14.5 km/h 86 % 0 mm 0 W/m2
01:54 10.4 °C 8.3 °C 1016.5 hPa SW 9.7 km/h 14.5 km/h 87 % 0 mm 0 W/m2
01:59 10.3 °C 8.2 °C 1016.1 hPa SW 9.7 km/h 14.5 km/h 87 % 0 mm 0 W/m2
02:04 10.3 °C 8.2 °C 1016.1 hPa SW 9.7 km/h 16.1 km/h 87 % 0 mm 0 W/m2
02:09 10.3 °C 8.4 °C 1016.1 hPa SW 9.7 km/h 16.1 km/h 88 % 0 mm 0 W/m2
02:14 10.2 °C 8.3 °C 1016.1 hPa SW 9.7 km/h 16.1 km/h 88 % 0 mm 0 W/m2
02:19 10.2 °C 8.3 °C 1016.1 hPa SW 11.3 km/h 17.7 km/h 88 % 0 mm 0 W/m2
02:24 10.2 °C 8.3 °C 1016.1 hPa SSW 11.3 km/h 19.3 km/h 88 % 0 mm 0 W/m2
02:29 10.2 °C 8.4 °C 1016.1 hPa SSW 9.7 km/h 19.3 km/h 89 % 0 mm 0 W/m2
02:34 10.1 °C 8.4 °C 1016.1 hPa SW 6.4 km/h 12.9 km/h 89 % 0 mm 0 W/m2
02:39 10.1 °C 8.6 °C 1016.1 hPa SW 1.6 km/h 8 km/h 90 % 0 mm 0 W/m2
02:44 10.1 °C 8.6 °C 1016.1 hPa SSW 1.6 km/h 8 km/h 90 % 0 mm 0 W/m2
02:49 10.1 °C 8.6 °C 1016.1 hPa South 1.6 km/h 8 km/h 90 % 0 mm 0 W/m2
02:54 10 °C 8.4 °C 1016.1 hPa SSE 1.6 km/h 8 km/h 90 % 0 mm 0 W/m2
02:59 10 °C 8.4 °C 1016.1 hPa SSE 3.2 km/h 8 km/h 90 % 0 mm 0 W/m2
03:04 10 °C 8.6 °C 1016.1 hPa SSE 3.2 km/h 8 km/h 91 % 0 mm 0 W/m2
03:09 9.9 °C 8.5 °C 1016.1 hPa SSE 3.2 km/h 9.7 km/h 91 % 0 mm 0 W/m2
03:14 9.9 °C 8.7 °C 1015.8 hPa SSE 3.2 km/h 9.7 km/h 92 % 0 mm 0 W/m2
03:19 9.8 °C 8.6 °C 1015.8 hPa SSE 3.2 km/h 9.7 km/h 92 % 0 mm 0 W/m2
03:24 9.8 °C 8.6 °C 1015.8 hPa SSE 3.2 km/h 9.7 km/h 92 % 0 mm 0 W/m2
03:30 9.8 °C 8.7 °C 1015.8 hPa SSE 4.8 km/h 9.7 km/h 93 % 0 mm 0 W/m2
03:35 9.7 °C 8.6 °C 1015.8 hPa SSE 3.2 km/h 8 km/h 93 % 0 mm 0 W/m2
03:40 9.7 °C 8.6 °C 1015.8 hPa South 3.2 km/h 9.7 km/h 93 % 0 mm 0 W/m2
03:45 9.7 °C 8.6 °C 1015.8 hPa South 3.2 km/h 9.7 km/h 93 % 0 mm 0 W/m2
03:50 9.7 °C 8.6 °C 1015.8 hPa South 1.6 km/h 9.7 km/h 93 % 0 mm 0 W/m2
03:55 9.6 °C 8.7 °C 1015.8 hPa SSE 1.6 km/h 8 km/h 94 % 0 mm 0 W/m2
04:00 9.6 °C 8.7 °C 1015.8 hPa SSE 1.6 km/h 6.4 km/h 94 % 0 mm 0 W/m2
04:05 9.6 °C 8.7 °C 1015.8 hPa SE 3.2 km/h 9.7 km/h 94 % 0 mm 0 W/m2
04:10 9.6 °C 8.7 °C 1015.8 hPa SE 4.8 km/h 9.7 km/h 94 % 0.25 mm 0 W/m2
04:15 9.7 °C 8.8 °C 1015.8 hPa SE 4.8 km/h 9.7 km/h 94 % 0.25 mm 0 W/m2
04:20 9.7 °C 8.9 °C 1015.5 hPa SE 3.2 km/h 9.7 km/h 95 % 0.25 mm 0 W/m2
04:25 9.7 °C 8.9 °C 1015.5 hPa SE 3.2 km/h 9.7 km/h 95 % 0.25 mm 0 W/m2
04:30 9.7 °C 8.9 °C 1015.5 hPa SE 4.8 km/h 12.9 km/h 95 % 0.25 mm 0 W/m2
04:35 9.7 °C 8.9 °C 1015.5 hPa SE 4.8 km/h 12.9 km/h 95 % 0.25 mm 0 W/m2
04:40 9.7 °C 8.9 °C 1015.5 hPa SE 6.4 km/h 11.3 km/h 95 % 0.25 mm 0 W/m2
04:45 9.7 °C 8.9 °C 1015.5 hPa SE 6.4 km/h 12.9 km/h 95 % 0.25 mm 0 W/m2
04:50 9.7 °C 8.9 °C 1015.5 hPa SE 6.4 km/h 12.9 km/h 95 % 0.25 mm 0 W/m2
05:00 9.7 °C 8.9 °C 1015.5 hPa SE 4.8 km/h 9.7 km/h 95 % 0.25 mm 0 W/m2
05:05 9.7 °C 8.9 °C 1015.5 hPa SE 4.8 km/h 9.7 km/h 95 % 0.25 mm 0 W/m2
05:10 9.7 °C 8.9 °C 1015.5 hPa SE 6.4 km/h 12.9 km/h 95 % 0 mm 0 W/m2
05:15 9.7 °C 9.1 °C 1015.8 hPa SE 6.4 km/h 12.9 km/h 96 % 0 mm 0 W/m2
05:20 9.8 °C 9.2 °C 1015.8 hPa SE 4.8 km/h 9.7 km/h 96 % 0 mm 0 W/m2
05:25 9.8 °C 9.2 °C 1015.8 hPa SE 4.8 km/h 9.7 km/h 96 % 0 mm 0 W/m2
05:30 9.8 °C 9.2 °C 1015.8 hPa ESE 4.8 km/h 9.7 km/h 96 % 0 mm 0 W/m2
05:35 9.8 °C 9.2 °C 1015.8 hPa ESE 4.8 km/h 9.7 km/h 96 % 0 mm 0 W/m2
05:40 9.8 °C 9.2 °C 1015.8 hPa ESE 4.8 km/h 9.7 km/h 96 % 0 mm 0 W/m2
05:45 9.8 °C 9.2 °C 1015.8 hPa ESE 4.8 km/h 9.7 km/h 96 % 0 mm 0 W/m2
05:50 9.8 °C 9.2 °C 1015.8 hPa ESE 3.2 km/h 9.7 km/h 96 % 0 mm 0 W/m2
05:55 9.8 °C 9.2 °C 1015.8 hPa ESE 1.6 km/h 6.4 km/h 96 % 0 mm 0 W/m2
06:01 9.8 °C 9.2 °C 1015.8 hPa ESE 1.6 km/h 8 km/h 96 % 0 mm 0 W/m2
06:06 9.8 °C 9.2 °C 1015.8 hPa ESE 1.6 km/h 8 km/h 96 % 0 mm 0 W/m2
06:11 9.9 °C 9.3 °C 1015.8 hPa ESE 1.6 km/h 4.8 km/h 96 % 0 mm 0 W/m2
06:16 9.9 °C 9.3 °C 1015.8 hPa ESE 1.6 km/h 8 km/h 96 % 0 mm 0 W/m2
06:21 9.9 °C 9.3 °C 1015.8 hPa ESE 1.6 km/h 8 km/h 96 % 0 mm 0 W/m2
06:26 9.9 °C 9.3 °C 1015.8 hPa ESE 1.6 km/h 8 km/h 96 % 0 mm 0 W/m2
06:31 9.9 °C 9.3 °C 1015.8 hPa ESE 1.6 km/h 8 km/h 96 % 0 mm 0 W/m2
06:36 9.9 °C 9.3 °C 1015.8 hPa ESE 1.6 km/h 8 km/h 96 % 0 mm 0 W/m2
06:38 10 °C 9.4 °C 1015.8 hPa ESE 1.6 km/h 6.4 km/h 96 % 0 mm 0 W/m2
06:43 10 °C 9.4 °C 1015.8 hPa ESE 1.6 km/h 6.4 km/h 96 % 0 mm 0 W/m2
06:48 10.1 °C 9.5 °C 1015.8 hPa ESE 1.6 km/h 6.4 km/h 96 % 0 mm 0 W/m2
06:53 10.1 °C 9.5 °C 1015.8 hPa ESE 3.2 km/h 8 km/h 96 % 0 mm 0 W/m2
06:58 10.1 °C 9.5 °C 1015.8 hPa ESE 1.6 km/h 8 km/h 96 % 0 mm 0 W/m2
07:03 10.1 °C 9.5 °C 1015.8 hPa Calm   1.6 km/h 96 % 0 mm 5 W/m2
07:08 10.2 °C 9.6 °C 1016.1 hPa Calm   3.2 km/h 96 % 0 mm 5 W/m2
07:13 10.2 °C 9.6 °C 1016.1 hPa Calm   3.2 km/h 96 % 0 mm 7 W/m2
07:18 10.2 °C 9.6 °C 1016.1 hPa Calm   6.4 km/h 96 % 0 mm 9 W/m2
07:23 10.2 °C 9.6 °C 1016.1 hPa Calm   6.4 km/h 96 % 0 mm 9 W/m2
07:28 10.3 °C 9.7 °C 1016.5 hPa Calm   4.8 km/h 96 % 0 mm 11 W/m2
07:33 10.3 °C 9.8 °C 1016.5 hPa Calm   4.8 km/h 97 % 0 mm 16 W/m2
07:38 10.4 °C 9.8 °C 1016.5 hPa Calm   3.2 km/h 96 % 0 mm 18 W/m2
07:43 10.4 °C 9.8 °C 1016.5 hPa WSW 1.6 km/h 11.3 km/h 96 % 0 mm 19 W/m2
07:48 10.5 °C 9.9 °C 1016.5 hPa West 1.6 km/h 11.3 km/h 96 % 0 mm 25 W/m2
07:53 10.6 °C 10 °C 1016.5 hPa Calm   6.4 km/h 96 % 0 mm 28 W/m2
07:58 10.6 °C 10 °C 1016.5 hPa Calm   4.8 km/h 96 % 0 mm 26 W/m2
08:03 10.7 °C 10.1 °C 1016.5 hPa Calm   4.8 km/h 96 % 0 mm 28 W/m2
08:08 10.8 °C 10.2 °C 1016.8 hPa Calm   4.8 km/h 96 % 0 mm 35 W/m2
08:13 10.8 °C 10.2 °C 1016.8 hPa Calm   3.2 km/h 96 % 0 mm 44 W/m2
08:18 10.8 °C 10.1 °C 1016.8 hPa Calm   1.6 km/h 95 % 0 mm 56 W/m2
08:23 10.9 °C 10.1 °C 1016.8 hPa Calm   1.6 km/h 95 % 0 mm 83 W/m2
08:28 11 °C 10.2 °C 1016.8 hPa West 1.6 km/h 9.7 km/h 95 % 0 mm 67 W/m2
08:33 11.1 °C 10.3 °C 1016.8 hPa West 1.6 km/h 9.7 km/h 95 % 0 mm 70 W/m2
08:38 11.2 °C 10.4 °C 1016.8 hPa WSW 3.2 km/h 9.7 km/h 95 % 0 mm 104 W/m2
08:43 11.4 °C 10.6 °C 1016.8 hPa WSW 4.8 km/h 17.7 km/h 95 % 0 mm 121 W/m2
08:48 11.5 °C 10.6 °C 1016.8 hPa West 6.4 km/h 17.7 km/h 94 % 0 mm 146 W/m2
08:53 11.7 °C 10.8 °C 1016.8 hPa West 8 km/h 17.7 km/h 94 % 0 mm 109 W/m2
08:58 11.8 °C 10.7 °C 1016.8 hPa WSW 9.7 km/h 17.7 km/h 93 % 0 mm 88 W/m2
09:03 11.9 °C 10.7 °C 1017.2 hPa WSW 9.7 km/h 19.3 km/h 92 % 0 mm 97 W/m2
09:08 12.1 °C 10.8 °C 1017.2 hPa WSW 11.3 km/h 22.5 km/h 92 % 0 mm 111 W/m2
09:13 12.2 °C 10.8 °C 1017.2 hPa WSW 12.9 km/h 22.5 km/h 91 % 0 mm 107 W/m2
09:18 12.2 °C 10.8 °C 1016.8 hPa WSW 12.9 km/h 24.1 km/h 91 % 0 mm 109 W/m2
09:23 12.3 °C 10.7 °C 1016.8 hPa WSW 12.9 km/h 24.1 km/h 90 % 0 mm 139 W/m2
09:28 12.3 °C 10.7 °C 1016.8 hPa WSW 11.3 km/h 20.9 km/h 90 % 0 mm 156 W/m2
09:33 12.3 °C 10.7 °C 1016.8 hPa WSW 11.3 km/h 19.3 km/h 90 % 0 mm 149 W/m2
09:38 12.4 °C 10.8 °C 1017.2 hPa SW 9.7 km/h 19.3 km/h 90 % 0 mm 139 W/m2
09:43 12.4 °C 10.8 °C 1017.2 hPa SW 6.4 km/h 14.5 km/h 90 % 0 mm 120 W/m2
09:48 12.5 °C 10.9 °C 1017.2 hPa SSW 4.8 km/h 12.9 km/h 90 % 0 mm 114 W/m2
09:53 12.6 °C 10.8 °C 1017.2 hPa SW 8 km/h 17.7 km/h 89 % 0 mm 121 W/m2
09:58 12.6 °C 10.8 °C 1017.2 hPa WSW 8 km/h 17.7 km/h 89 % 0 mm 128 W/m2
10:03 12.7 °C 10.9 °C 1017.2 hPa WSW 6.4 km/h 16.1 km/h 89 % 0 mm 105 W/m2
10:08 12.8 °C 11.1 °C 1017.2 hPa WSW 4.8 km/h 14.5 km/h 89 % 0 mm 100 W/m2
10:13 12.8 °C 10.8 °C 1017.5 hPa SW 4.8 km/h 14.5 km/h 88 % 0 mm 102 W/m2
10:18 12.9 °C 10.9 °C 1017.5 hPa SW 8 km/h 16.1 km/h 88 % 0 mm 83 W/m2
10:23 12.9 °C 10.8 °C 1017.5 hPa SSW 8 km/h 16.1 km/h 87 % 0 mm 135 W/m2
10:28 12.9 °C 10.8 °C 1017.5 hPa SW 8 km/h 17.7 km/h 87 % 0 mm 135 W/m2
10:33 13 °C 10.9 °C 1017.5 hPa SW 8 km/h 17.7 km/h 87 % 0 mm 199 W/m2
10:38 13.1 °C 11 °C 1017.5 hPa SW 4.8 km/h 14.5 km/h 87 % 0 mm 165 W/m2
10:43 13.2 °C 10.9 °C 1017.5 hPa SSW 4.8 km/h 12.9 km/h 86 % 0 mm 107 W/m2
10:48 13.2 °C 10.9 °C 1017.5 hPa SSW 6.4 km/h 14.5 km/h 86 % 0 mm 113 W/m2
10:53 13.2 °C 10.7 °C 1017.8 hPa SSW 8 km/h 19.3 km/h 85 % 0 mm 91 W/m2
10:58 13.2 °C 10.7 °C 1017.8 hPa SSW 11.3 km/h 24.1 km/h 85 % 0 mm 104 W/m2
11:03 13.2 °C 10.7 °C 1017.8 hPa SSW 11.3 km/h 24.1 km/h 85 % 0 mm 174 W/m2
11:08 13.3 °C 10.8 °C 1017.8 hPa SSW 11.3 km/h 22.5 km/h 85 % 0 mm 107 W/m2
11:14 13.3 °C 10.7 °C 1017.8 hPa SSW 11.3 km/h 22.5 km/h 84 % 0 mm 109 W/m2
11:19 13.3 °C 10.7 °C 1017.8 hPa SSW 12.9 km/h 22.5 km/h 84 % 0 mm 107 W/m2
11:24 13.3 °C 10.7 °C 1017.8 hPa SSW 12.9 km/h 22.5 km/h 84 % 0 mm 118 W/m2
11:29 13.3 °C 10.5 °C 1017.8 hPa SSW 12.9 km/h 24.1 km/h 83 % 0 mm 90 W/m2
11:34 13.3 °C 10.5 °C 1018.2 hPa SSW 12.9 km/h 24.1 km/h 83 % 0 mm 84 W/m2
11:39 13.4 °C 10.6 °C 1017.8 hPa SSW 9.7 km/h 22.5 km/h 83 % 0 mm 72 W/m2
11:44 13.4 °C 10.6 °C 1018.2 hPa SSW 6.4 km/h 14.5 km/h 83 % 0 mm 69 W/m2
11:49 13.4 °C 10.6 °C 1018.2 hPa SSW 4.8 km/h 14.5 km/h 83 % 0 mm 65 W/m2
11:54 13.4 °C 10.6 °C 1017.8 hPa SSW 6.4 km/h 14.5 km/h 83 % 0 mm 93 W/m2
11:59 13.5 °C 10.8 °C 1017.8 hPa SSW 8 km/h 32.2 km/h 84 % 0 mm 121 W/m2
12:04 13.5 °C 10.8 °C 1017.8 hPa SSW 9.7 km/h 32.2 km/h 84 % 0 mm 107 W/m2
12:09 13.4 °C 10.8 °C 1017.8 hPa SW 11.3 km/h 20.9 km/h 84 % 0 mm 158 W/m2
12:14 13.5 °C 11 °C 1017.8 hPa SW 11.3 km/h 19.3 km/h 85 % 0 mm 178 W/m2
12:19 13.4 °C 10.9 °C 1017.8 hPa SW 12.9 km/h 30.6 km/h 85 % 0 mm 241 W/m2
12:24 13.5 °C 11 °C 1017.8 hPa SW 16.1 km/h 32.2 km/h 85 % 0 mm 204 W/m2
12:29 13.5 °C 11 °C 1017.5 hPa SW 17.7 km/h 32.2 km/h 85 % 0 mm 197 W/m2
12:34 13.6 °C 11.1 °C 1017.8 hPa SW 16.1 km/h 29 km/h 85 % 0 mm 234 W/m2
12:39 13.6 °C 11.1 °C 1017.8 hPa SW 14.5 km/h 29 km/h 85 % 0 mm 341 W/m2
12:44 13.8 °C 11.3 °C 1017.5 hPa SW 12.9 km/h 29 km/h 85 % 0 mm 566 W/m2
12:49 14.1 °C 11.3 °C 1017.8 hPa SW 14.5 km/h 29 km/h 83 % 0 mm 410 W/m2
12:54 14.3 °C 11.4 °C 1017.8 hPa SW 17.7 km/h 29 km/h 83 % 0 mm 394 W/m2
12:59 14.4 °C 11.4 °C 1017.5 hPa SW 17.7 km/h 38.6 km/h 82 % 0 mm 329 W/m2
13:04 14.4 °C 11.4 °C 1017.8 hPa SW 19.3 km/h 38.6 km/h 82 % 0 mm 278 W/m2
13:09 14.2 °C 11 °C 1017.8 hPa SW 16.1 km/h 32.2 km/h 81 % 0 mm 197 W/m2
13:14 14.1 °C 11.1 °C 1017.8 hPa SW 16.1 km/h 30.6 km/h 82 % 0 mm 176 W/m2
13:19 14 °C 11 °C 1017.5 hPa SW 16.1 km/h 30.6 km/h 82 % 0 mm 167 W/m2
13:24 13.8 °C 10.8 °C 1017.8 hPa SSW 16.1 km/h 30.6 km/h 82 % 0 mm 149 W/m2
13:29 13.8 °C 10.9 °C 1017.8 hPa SSW 16.1 km/h 35.4 km/h 83 % 0 mm 134 W/m2
13:34 13.7 °C 10.9 °C 1017.5 hPa SSW 17.7 km/h 35.4 km/h 83 % 0 mm 111 W/m2
13:39 13.6 °C 10.8 °C 1017.5 hPa SSW 16.1 km/h 33.8 km/h 83 % 0 mm 134 W/m2
13:44 13.6 °C 10.8 °C 1017.5 hPa SW 12.9 km/h 32.2 km/h 83 % 0 mm 148 W/m2
13:49 13.6 °C 10.9 °C 1017.5 hPa SW 11.3 km/h 19.3 km/h 84 % 0 mm 135 W/m2
13:54 13.7 °C 10.9 °C 1017.5 hPa SW 11.3 km/h 20.9 km/h 83 % 0 mm 118 W/m2
13:59 13.7 °C 10.9 °C 1017.5 hPa SSW 12.9 km/h 24.1 km/h 83 % 0 mm 134 W/m2
14:04 13.7 °C 11.1 °C 1017.2 hPa SW 12.9 km/h 24.1 km/h 84 % 0 mm 155 W/m2
14:09 13.8 °C 11.2 °C 1017.2 hPa SSW 9.7 km/h 22.5 km/h 84 % 0 mm 153 W/m2
14:14 13.8 °C 10.9 °C 1017.2 hPa SSW 12.9 km/h 25.7 km/h 83 % 0 mm 104 W/m2
14:19 13.8 °C 10.9 °C 1017.2 hPa SSW 17.7 km/h 32.2 km/h 83 % 0 mm 118 W/m2
14:24 13.8 °C 10.9 °C 1017.2 hPa SSW 14.5 km/h 32.2 km/h 83 % 0 mm 132 W/m2
14:29 13.9 °C 11.1 °C 1017.5 hPa SSW 11.3 km/h 19.3 km/h 83 % 0 mm 123 W/m2
14:34 13.9 °C 11.1 °C 1017.5 hPa SSW 11.3 km/h 20.9 km/h 83 % 0 mm 113 W/m2
14:39 14 °C 11.3 °C 1017.2 hPa SW 11.3 km/h 24.1 km/h 84 % 0 mm 91 W/m2
14:44 13.9 °C 11.4 °C 1017.5 hPa SW 9.7 km/h 24.1 km/h 85 % 0 mm 90 W/m2
14:49 13.9 °C 11.4 °C 1017.2 hPa SSW 11.3 km/h 19.3 km/h 85 % 0 mm 81 W/m2
14:54 13.8 °C 11.5 °C 1017.2 hPa SSW 14.5 km/h 30.6 km/h 86 % 0.25 mm 100 W/m2
14:59 13.6 °C 11.5 °C 1017.2 hPa SSW 17.7 km/h 32.2 km/h 87 % 0.25 mm 98 W/m2
15:05 13.4 °C 11.4 °C 1017.2 hPa SW 16.1 km/h 32.2 km/h 88 % 0.25 mm 149 W/m2
15:10 13.4 °C 11.6 °C 1017.2 hPa SW 12.9 km/h 22.5 km/h 89 % 0.51 mm 200 W/m2
15:15 13.4 °C 11.8 °C 1016.8 hPa SSW 12.9 km/h 22.5 km/h 90 % 0.51 mm 153 W/m2
15:20 13.4 °C 11.8 °C 1016.8 hPa SSW 12.9 km/h 32.2 km/h 90 % 0.51 mm 155 W/m2
15:25 13.4 °C 11.8 °C 1016.8 hPa SSW 14.5 km/h 32.2 km/h 90 % 0.51 mm 144 W/m2
15:30 13.4 °C 11.8 °C 1016.8 hPa SSW 12.9 km/h 24.1 km/h 90 % 0.51 mm 107 W/m2
15:35 13.4 °C 11.6 °C 1016.8 hPa SSW 12.9 km/h 24.1 km/h 89 % 0.51 mm 149 W/m2
15:40 13.5 °C 11.9 °C 1016.5 hPa SSW 14.5 km/h 20.9 km/h 90 % 0.51 mm 148 W/m2
15:45 13.6 °C 11.8 °C 1016.5 hPa SSW 12.9 km/h 22.5 km/h 89 % 0.51 mm 127 W/m2
15:50 13.6 °C 11.8 °C 1016.5 hPa SSW 11.3 km/h 22.5 km/h 89 % 0.51 mm 120 W/m2
15:55 13.6 °C 11.7 °C 1016.5 hPa SSW 12.9 km/h 24.1 km/h 88 % 0.25 mm 83 W/m2
16:00 13.6 °C 11.8 °C 1016.5 hPa SSW 14.5 km/h 24.1 km/h 89 % 0.25 mm 93 W/m2
16:05 13.6 °C 11.8 °C 1016.5 hPa SSW 14.5 km/h 22.5 km/h 89 % 0.25 mm 118 W/m2
16:10 13.5 °C 11.7 °C 1016.5 hPa SSW 16.1 km/h 25.7 km/h 89 % 0 mm 120 W/m2
16:15 13.6 °C 11.8 °C 1016.5 hPa SSW 16.1 km/h 25.7 km/h 89 % 0 mm 116 W/m2
16:20 13.6 °C 11.8 °C 1016.5 hPa SSW 17.7 km/h 33.8 km/h 89 % 0 mm 125 W/m2
16:25 13.6 °C 11.8 °C 1016.5 hPa SSW 19.3 km/h 33.8 km/h 89 % 0 mm 84 W/m2
16:30 13.6 °C 11.7 °C 1016.1 hPa SSW 20.9 km/h 33.8 km/h 88 % 0 mm 83 W/m2
16:35 13.6 °C 11.8 °C 1016.1 hPa SSW 19.3 km/h 33.8 km/h 89 % 0 mm 98 W/m2
16:40 13.6 °C 11.8 °C 1016.1 hPa SSW 17.7 km/h 33.8 km/h 89 % 0 mm 118 W/m2
16:45 13.7 °C 11.9 °C 1016.1 hPa SSW 19.3 km/h 33.8 km/h 89 % 0 mm 128 W/m2
16:50 13.7 °C 11.9 °C 1016.1 hPa SSW 19.3 km/h 33.8 km/h 89 % 0 mm 125 W/m2
16:55 13.8 °C 11.8 °C 1016.1 hPa SSW 19.3 km/h 35.4 km/h 88 % 0 mm 132 W/m2
17:00 13.8 °C 11.8 °C 1016.1 hPa SSW 19.3 km/h 35.4 km/h 88 % 0 mm 116 W/m2
17:05 13.9 °C 11.9 °C 1016.1 hPa SSW 19.3 km/h 38.6 km/h 88 % 0 mm 111 W/m2
17:10 13.9 °C 11.9 °C 1016.1 hPa SSW 20.9 km/h 38.6 km/h 88 % 0 mm 139 W/m2
17:15 14 °C 12.1 °C 1016.1 hPa SSW 19.3 km/h 30.6 km/h 88 % 0 mm 165 W/m2
17:20 14.1 °C 12.2 °C 1016.1 hPa SW 19.3 km/h 35.4 km/h 88 % 0 mm 199 W/m2
17:25 14.1 °C 12.2 °C 1016.1 hPa SSW 20.9 km/h 35.4 km/h 88 % 0 mm 116 W/m2
17:30 14.1 °C 11.9 °C 1016.1 hPa SSW 20.9 km/h 43.5 km/h 87 % 0 mm 81 W/m2
17:35 14 °C 11.9 °C 1016.1 hPa SSW 20.9 km/h 43.5 km/h 87 % 0 mm 84 W/m2
17:40 13.9 °C 11.8 °C 1015.8 hPa SSW 19.3 km/h 33.8 km/h 87 % 0 mm 100 W/m2
17:45 13.9 °C 11.8 °C 1015.8 hPa SSW 19.3 km/h 33.8 km/h 87 % 0 mm 76 W/m2
17:50 13.9 °C 11.8 °C 1016.1 hPa SSW 19.3 km/h 33.8 km/h 87 % 0 mm 49 W/m2
17:55 13.9 °C 11.8 °C 1016.1 hPa SSW 20.9 km/h 38.6 km/h 87 % 0 mm 26 W/m2
18:00 13.9 °C 11.8 °C 1016.1 hPa SSW 19.3 km/h 38.6 km/h 87 % 0 mm 23 W/m2
18:05 13.8 °C 11.7 °C 1016.1 hPa SSW 17.7 km/h 33.8 km/h 87 % 0 mm 25 W/m2
18:10 13.8 °C 11.7 °C 1016.1 hPa SSW 17.7 km/h 33.8 km/h 87 % 0 mm 37 W/m2
18:15 13.8 °C 11.7 °C 1016.1 hPa SSW 17.7 km/h 33.8 km/h 87 % 0 mm 25 W/m2
18:20 13.7 °C 11.6 °C 1016.1 hPa SSW 17.7 km/h 30.6 km/h 87 % 0 mm 19 W/m2
18:25 13.7 °C 11.7 °C 1016.1 hPa SSW 17.7 km/h 32.2 km/h 88 % 0 mm 18 W/m2
18:30 13.7 °C 11.7 °C 1016.1 hPa SSW 17.7 km/h 32.2 km/h 88 % 0 mm 12 W/m2
18:35 13.6 °C 11.7 °C 1016.1 hPa SSW 16.1 km/h 29 km/h 88 % 0 mm 11 W/m2
18:41 13.6 °C 11.8 °C 1016.1 hPa SSW 14.5 km/h 24.1 km/h 89 % 0 mm 14 W/m2
18:46 13.4 °C 11.6 °C 1016.1 hPa SSW 14.5 km/h 24.1 km/h 89 % 0 mm 14 W/m2
18:51 13.3 °C 11.7 °C 1016.1 hPa SSW 14.5 km/h 25.7 km/h 90 % 0 mm 12 W/m2
18:56 13.2 °C 11.6 °C 1016.1 hPa SSW 16.1 km/h 30.6 km/h 90 % 0 mm 11 W/m2
19:01 13.2 °C 11.6 °C 1016.1 hPa SSW 16.1 km/h 30.6 km/h 90 % 0 mm 9 W/m2
19:06 13.1 °C 11.5 °C 1016.1 hPa SW 17.7 km/h 29 km/h 90 % 0 mm 7 W/m2
19:11 13.1 °C 11.7 °C 1016.1 hPa SSW 17.7 km/h 30.6 km/h 91 % 0 mm 5 W/m2
19:16 13.1 °C 11.7 °C 1016.1 hPa SSW 16.1 km/h 30.6 km/h 91 % 0 mm 0 W/m2
19:21 13 °C 11.6 °C 1016.1 hPa SSW 16.1 km/h 30.6 km/h 91 % 0 mm 0 W/m2
19:26 13 °C 11.6 °C 1016.1 hPa SSW 17.7 km/h 33.8 km/h 91 % 0 mm 0 W/m2
19:32 12.9 °C 11.4 °C 1016.1 hPa SSW 17.7 km/h 33.8 km/h 91 % 0 mm 0 W/m2
19:37 12.9 °C 11.4 °C 1016.1 hPa SSW 17.7 km/h 30.6 km/h 91 % 0 mm 0 W/m2
19:42 12.8 °C 11.4 °C 1016.1 hPa SSW 16.1 km/h 25.7 km/h 91 % 0 mm 0 W/m2
19:47 12.8 °C 11.4 °C 1016.1 hPa SW 16.1 km/h 25.7 km/h 91 % 0 mm 0 W/m2
19:52 12.8 °C 11.6 °C 1016.1 hPa SW 14.5 km/h 22.5 km/h 92 % 0 mm 0 W/m2
19:57 12.8 °C 11.6 °C 1016.1 hPa SW 12.9 km/h 20.9 km/h 92 % 0 mm 0 W/m2
20:02 12.8 °C 11.6 °C 1016.1 hPa SW 14.5 km/h 25.7 km/h 92 % 0 mm 0 W/m2
20:07 12.8 °C 11.6 °C 1016.1 hPa SSW 16.1 km/h 25.7 km/h 92 % 0 mm 0 W/m2
20:12 12.8 °C 11.6 °C 1016.1 hPa SSW 16.1 km/h 30.6 km/h 92 % 0 mm 0 W/m2
20:17 12.8 °C 11.4 °C 1016.1 hPa SW 16.1 km/h 30.6 km/h 91 % 0 mm 0 W/m2
20:22 12.8 °C 11.4 °C 1016.1 hPa SW 16.1 km/h 30.6 km/h 91 % 0 mm 0 W/m2
20:27 12.8 °C 11.4 °C 1016.1 hPa SW 17.7 km/h 30.6 km/h 91 % 0 mm 0 W/m2
20:32 12.9 °C 11.4 °C 1016.1 hPa SW 19.3 km/h 33.8 km/h 91 % 0 mm 0 W/m2
20:37 12.9 °C 11.4 °C 1016.5 hPa SW 19.3 km/h 33.8 km/h 91 % 0 mm 0 W/m2
20:42 12.9 °C 11.4 °C 1016.5 hPa SW 19.3 km/h 35.4 km/h 91 % 0 mm 0 W/m2
20:48 12.9 °C 11.4 °C 1016.5 hPa SW 19.3 km/h 35.4 km/h 91 % 0 mm 0 W/m2
20:53 12.9 °C 11.4 °C 1016.5 hPa SW 16.1 km/h 30.6 km/h 91 % 0 mm 0 W/m2
20:58 12.9 °C 11.3 °C 1016.5 hPa SW 16.1 km/h 29 km/h 90 % 0 mm 0 W/m2
21:03 12.9 °C 11.4 °C 1016.5 hPa SW 17.7 km/h 29 km/h 91 % 0 mm 0 W/m2
21:08 12.9 °C 11.4 °C 1016.5 hPa SSW 19.3 km/h 32.2 km/h 91 % 0 mm 0 W/m2
21:13 12.9 °C 11.3 °C 1016.5 hPa SSW 20.9 km/h 33.8 km/h 90 % 0 mm 0 W/m2
21:18 13 °C 11.4 °C 1016.5 hPa SW 20.9 km/h 33.8 km/h 90 % 0 mm 0 W/m2
21:23 13 °C 11.4 °C 1016.5 hPa SW 20.9 km/h 37 km/h 90 % 0 mm 0 W/m2
21:28 13 °C 11.4 °C 1016.5 hPa SW 22.5 km/h 37 km/h 90 % 0 mm 0 W/m2
21:33 13.1 °C 11.5 °C 1016.5 hPa SSW 22.5 km/h 38.6 km/h 90 % 0 mm 0 W/m2
21:38 13.1 °C 11.5 °C 1016.5 hPa SSW 22.5 km/h 38.6 km/h 90 % 0 mm 0 W/m2
21:43 13.1 °C 11.5 °C 1016.5 hPa SW 20.9 km/h 37 km/h 90 % 0 mm 0 W/m2
21:48 13.1 °C 11.5 °C 1016.5 hPa SW 20.9 km/h 33.8 km/h 90 % 0 mm 0 W/m2
21:53 13.1 °C 11.5 °C 1016.5 hPa SW 20.9 km/h 33.8 km/h 90 % 0 mm 0 W/m2
21:58 13.1 °C 11.3 °C 1016.5 hPa SSW 20.9 km/h 43.5 km/h 89 % 0 mm 0 W/m2
22:03 13.1 °C 11.3 °C 1016.5 hPa SSW 20.9 km/h 43.5 km/h 89 % 0 mm 0 W/m2
22:08 13.1 °C 11.3 °C 1016.5 hPa SSW 19.3 km/h 32.2 km/h 89 % 0 mm 0 W/m2
22:13 13.2 °C 11.4 °C 1016.5 hPa SSW 17.7 km/h 32.2 km/h 89 % 0 mm 0 W/m2
22:18 13.2 °C 11.4 °C 1016.5 hPa SSW 17.7 km/h 32.2 km/h 89 % 0 mm 0 W/m2
22:23 13.2 °C 11.4 °C 1016.5 hPa SSW 16.1 km/h 30.6 km/h 89 % 0 mm 0 W/m2
22:28 13.2 °C 11.4 °C 1016.5 hPa SSW 17.7 km/h 41.8 km/h 89 % 0 mm 0 W/m2
22:34 13.2 °C 11.4 °C 1016.5 hPa SSW 17.7 km/h 41.8 km/h 89 % 0 mm 0 W/m2
22:39 13.2 °C 11.4 °C 1016.5 hPa SSW 17.7 km/h 35.4 km/h 89 % 0 mm 0 W/m2
22:44 13.2 °C 11.4 °C 1016.5 hPa SSW 16.1 km/h 35.4 km/h 89 % 0 mm 0 W/m2
22:49 13.2 °C 11.4 °C 1016.5 hPa SSW 14.5 km/h 29 km/h 89 % 0 mm 0 W/m2
22:54 13.2 °C 11.4 °C 1016.5 hPa SSW 16.1 km/h 29 km/h 89 % 0 mm 0 W/m2
22:59 13.2 °C 11.4 °C 1016.5 hPa SSW 14.5 km/h 29 km/h 89 % 0 mm 0 W/m2
23:04 13.2 °C 11.4 °C 1016.5 hPa SSW 14.5 km/h 29 km/h 89 % 0 mm 0 W/m2
23:09 13.1 °C 11.3 °C 1016.5 hPa SSW 17.7 km/h 35.4 km/h 89 % 0 mm 0 W/m2
23:14 13.2 °C 11.4 °C 1016.5 hPa SSW 19.3 km/h 37 km/h 89 % 0 mm 0 W/m2
23:19 13.2 °C 11.4 °C 1016.5 hPa SSW 20.9 km/h 37 km/h 89 % 0 mm 0 W/m2
23:24 13.2 °C 11.4 °C 1016.5 hPa SSW 22.5 km/h 35.4 km/h 89 % 0 mm 0 W/m2
23:29 13.2 °C 11.3 °C 1016.1 hPa SSW 20.9 km/h 35.4 km/h 88 % 0 mm 0 W/m2
23:34 13.2 °C 11.3 °C 1016.1 hPa SSW 19.3 km/h 33.8 km/h 88 % 0 mm 0 W/m2
23:39 13.2 °C 11.3 °C 1016.1 hPa SSW 19.3 km/h 33.8 km/h 88 % 0 mm 0 W/m2
23:44 13.2 °C 11.3 °C 1016.1 hPa SSW 20.9 km/h 35.4 km/h 88 % 0 mm 0 W/m2
23:49 13.2 °C 11.3 °C 1016.1 hPa SW 20.9 km/h 35.4 km/h 88 % 0 mm 0 W/m2
23:54 13.2 °C 11.3 °C 1016.1 hPa SW 17.7 km/h 33.8 km/h 88 % 0 mm 0 W/m2
23:59 13.2 °C 11.3 °C 1016.1 hPa SW 17.7 km/h 29 km/h 88 % 0 mm 0 W/m2
Delerius-Weather
Compliments of Weather Underground - 2.25 mb

Data updates at regular intervals.